Time;durP1;ratioP1;P1;durP2;ratioP2;P2;SDS_P1;SDS_P2;PMS_P1;PMS_P2;Temp;Humidity;BMP_temperature;BMP_pressure;BME280_temperature;BME280_humidity;BME280_pressure;Samples;Min_cycle;Max_cycle;Signal;HPM_P1;HPM_P2
2021/12/05 00:19:43;;;;;;;13.80;2.08;;;;;;;-145.01;100.00;62935.13;5093675;28;20036;-49
2021/12/05 00:22:21;;;;;;;14.30;2.28;;;;;;;-145.01;100.00;62935.13;5075351;28;20028;-50
2021/12/05 00:24:50;;;;;;;11.20;2.20;;;;;;;-145.01;100.00;62935.13;5091863;28;20024;-53
2021/12/05 00:27:19;;;;;;;6.82;2.00;;;;;;;-145.01;100.00;62935.13;5074673;28;20422;-50
2021/12/05 00:30:18;;;;;;;6.63;2.13;;;;;;;-145.01;100.00;62935.13;5057913;28;20183;-54
2021/12/05 00:33:00;;;;;;;7.43;3.08;;;;;;;-145.01;100.00;62935.13;5074019;28;20024;-53
2021/12/05 00:45:56;;;;;;;15.55;5.82;;;;;;;-145.01;100.00;62935.13;5075752;28;20123;-54
2021/12/05 01:02:01;;;;;;;22.35;5.90;;;;;;;-145.01;100.00;62935.13;5071783;28;20094;-49
2021/12/05 01:09:41;;;;;;;23.38;7.22;;;;;;;-145.01;100.00;62935.13;5092079;28;19960;-49
2021/12/05 01:14:53;;;;;;;31.25;7.85;;;;;;;3.80;95.40;99528.72;5081867;28;20088;-45
2021/12/05 01:17:24;;;;;;;33.78;7.93;;;;;;;-145.01;100.00;62935.13;5071602;28;20086;-48
2021/12/05 01:19:50;;;;;;;36.60;13.00;;;;;;;-145.01;100.00;62935.13;5054412;28;20035;-51
2021/12/05 01:22:18;;;;;;;31.65;8.15;;;;;;;-145.01;100.00;62935.13;5071656;28;20056;-50
2021/12/05 01:25:20;;;;;;;19.98;5.75;;;;;;;3.83;95.40;99516.91;5063426;28;20093;-50
2021/12/05 01:28:03;;;;;;;28.88;5.30;;;;;;;-145.01;100.00;62935.13;5091741;28;20043;-50
2021/12/05 01:30:39;;;;;;;23.98;5.20;;;;;;;-145.01;100.00;62935.13;5091797;28;20044;-49
2021/12/05 01:33:25;;;;;;;17.48;5.72;;;;;;;-145.01;100.00;62935.13;5073446;28;20152;-48
2021/12/05 01:36:44;;;;;;;29.17;5.07;;;;;;;-145.01;100.00;62935.13;5074068;28;20040;-51
2021/12/05 01:50:04;;;;;;;17.70;4.13;;;;;;;-145.01;100.00;62935.13;5095706;28;20468;-53
2021/12/05 02:31:04;;;;;;;12.15;2.65;;;;;;;3.47;96.77;99523.44;5094391;28;20089;-49
2021/12/05 02:39:12;;;;;;;13.75;3.22;;;;;;;3.39;96.73;99525.28;5094748;28;20055;-52
2021/12/05 02:41:41;;;;;;;14.40;3.20;;;;;;;3.38;97.30;99540.41;5094913;28;20046;-52
2021/12/05 02:46:42;;;;;;;9.07;2.90;;;;;;;3.35;97.23;99529.28;5067605;28;20387;-53
2021/12/05 02:49:10;;;;;;;13.35;3.20;;;;;;;3.34;97.71;99524.97;5075062;28;20094;-51
2021/12/05 02:51:36;;;;;;;16.70;3.65;;;;;;;3.34;97.69;99527.63;5083893;28;20056;-50
2021/12/05 02:54:06;;;;;;;16.00;3.47;;;;;;;3.34;97.38;99527.63;5075367;28;20063;-51
2021/12/05 02:56:36;;;;;;;14.93;4.03;;;;;;;3.30;97.50;99535.94;5056292;28;20024;-53
2021/12/05 02:59:18;;;;;;;27.08;4.15;;;;;;;3.32;97.85;99533.13;5074149;28;20037;-52
2021/12/05 03:01:47;;;;;;;11.68;4.38;;;;;;;3.35;98.01;99526.63;5066016;28;20070;-54
2021/12/05 03:04:12;;;;;;;23.35;5.28;;;;;;;3.39;97.87;99541.25;5074489;28;20396;-53
2021/12/05 03:06:49;;;;;;;18.77;5.38;;;;;;;3.38;98.59;99535.09;5056583;28;20052;-53
2021/12/05 03:09:14;;;;;;;19.13;5.60;;;;;;;3.36;98.20;99536.25;5075876;28;20052;-54
2021/12/05 03:11:39;;;;;;;10.02;5.03;;;;;;;3.37;98.53;99537.91;5074174;28;20107;-54
2021/12/05 03:14:05;;;;;;;22.38;5.47;;;;;;;3.39;98.51;99535.91;5074508;28;20043;-53
2021/12/05 03:16:32;;;;;;;13.18;4.53;;;;;;;3.39;98.89;99533.25;5073882;28;20016;-54
2021/12/05 03:18:57;;;;;;;22.50;4.63;;;;;;;3.39;98.67;99519.97;5074265;28;20368;-53
2021/12/05 03:21:23;;;;;;;20.95;4.97;;;;;;;3.37;99.37;99533.44;5083235;28;20028;-54
2021/12/05 03:23:50;;;;;;;9.82;3.75;;;;;;;3.36;99.44;99517.66;5086934;28;20048;-50
2021/12/05 03:26:20;;;;;;;9.00;2.88;;;;;;;3.34;98.81;99523.13;5081701;28;20039;-53
2021/12/05 03:28:46;;;;;;;11.82;2.65;;;;;;;3.31;98.73;99518.16;5055813;28;20101;-51
2021/12/05 03:31:12;;;;;;;8.32;2.70;;;;;;;3.24;98.41;99520.66;5074285;28;20464;-52
2021/12/05 03:33:38;;;;;;;9.20;1.83;;;;;;;3.13;97.58;99520.97;5088328;28;20028;-55
2021/12/05 03:36:05;;;;;;;7.28;1.60;;;;;;;3.07;97.49;99522.47;5093607;28;20093;-53
2021/12/05 03:38:30;;;;;;;7.05;1.20;;;;;;;3.05;97.24;99523.63;5093446;28;20035;-52
2021/12/05 03:40:56;;;;;;;2.13;1.00;;;;;;;3.01;97.21;99527.63;5090059;28;20091;-52
2021/12/05 03:43:21;;;;;;;3.30;1.30;;;;;;;2.96;97.05;99529.97;5074074;28;20028;-50
2021/12/05 03:45:51;;;;;;;7.95;1.50;;;;;;;2.94;97.22;99539.91;5074698;28;20417;-49
2021/12/05 03:48:17;;;;;;;5.75;1.65;;;;;;;2.94;97.17;99532.75;5093097;28;20035;-48
2021/12/05 03:50:44;;;;;;;10.05;1.70;;;;;;;2.91;97.70;99542.91;5072891;28;20028;-46
2021/12/05 03:53:10;;;;;;;7.45;1.67;;;;;;;2.92;97.61;99549.88;5091134;28;20103;-44
2021/12/05 03:55:38;;;;;;;4.05;1.50;;;;;;;2.92;97.60;99553.34;5082066;28;20089;-44
2021/12/05 03:58:04;;;;;;;7.38;1.90;;;;;;;2.91;97.82;99550.88;5071699;28;20025;-43
2021/12/05 04:00:33;;;;;;;10.40;2.50;;;;;;;2.93;98.04;99557.69;5072848;28;20035;-45
2021/12/05 04:03:01;;;;;;;7.53;2.63;;;;;;;2.95;97.87;99560.16;5092811;28;20027;-50
2021/12/05 04:05:27;;;;;;;;;;;;;;;2.94;97.81;99561.16;5093251;28;20537;-51
2021/12/05 04:07:52;;;;;;;7.28;2.78;;;;;;;2.93;98.11;99570.16;5092778;28;19947;-52
2021/12/05 04:10:18;;;;;;;13.30;3.28;;;;;;;2.94;98.45;99574.47;5092667;28;20107;-54
2021/12/05 04:12:44;;;;;;;11.05;3.40;;;;;;;2.93;98.65;99568.31;5040242;28;20115;-51
2021/12/05 04:15:11;;;;;;;7.57;3.17;;;;;;;2.93;97.69;99567.50;5072469;28;20119;-50
2021/12/05 04:17:37;;;;;;;5.88;3.60;;;;;;;2.95;98.15;99576.97;5072359;28;20396;-50
2021/12/05 04:20:04;;;;;;;11.48;2.97;;;;;;;2.95;98.16;99570.78;5072303;28;20020;-48
2021/12/05 04:22:30;;;;;;;6.22;3.25;;;;;;;2.94;97.94;99569.16;5073641;28;20448;-51
2021/12/05 04:24:56;;;;;;;7.28;3.13;;;;;;;2.90;97.98;99568.66;5072350;28;20059;-52
2021/12/05 04:27:21;;;;;;;5.20;2.90;;;;;;;2.87;97.95;99579.63;5054294;28;20107;-50
2021/12/05 04:29:47;;;;;;;7.32;3.08;;;;;;;2.88;98.01;99577.78;5072315;28;20017;-52
2021/12/05 04:32:12;;;;;;;7.15;3.30;;;;;;;2.86;97.74;99576.09;5085936;28;20409;-51
2021/12/05 04:34:37;;;;;;;8.40;3.60;;;;;;;2.84;97.49;99579.91;5092695;28;20507;-51
2021/12/05 04:37:03;;;;;;;5.43;3.38;;;;;;;2.86;98.38;99581.41;5092327;28;20098;-51
2021/12/05 04:39:29;;;;;;;10.13;3.33;;;;;;;2.84;98.03;99586.09;5090295;28;20462;-49
2021/12/05 04:41:55;;;;;;;6.30;2.97;;;;;;;2.82;98.10;99587.25;5084530;28;20044;-51
2021/12/05 04:44:22;;;;;;;7.97;2.75;;;;;;;2.84;97.63;99591.41;5054327;28;20041;-48
2021/12/05 04:46:47;;;;;;;4.57;2.53;;;;;;;2.85;97.92;99587.72;5054535;28;20073;-50
2021/12/05 04:49:13;;;;;;;4.95;2.38;;;;;;;2.83;98.32;99589.72;5080792;28;20028;-51
2021/12/05 04:51:42;;;;;;;13.85;3.08;;;;;;;2.83;98.25;99591.56;5092121;28;20379;-51
2021/12/05 04:54:10;;;;;;;5.18;2.30;;;;;;;2.86;98.58;99586.72;5092648;28;20023;-49
2021/12/05 04:56:35;;;;;;;;;;;;;;;2.83;98.27;99587.06;5056026;28;20048;-50
2021/12/05 04:59:03;;;;;;;8.55;2.60;;;;;;;2.81;98.39;99589.03;5060344;28;19973;-50
2021/12/05 05:01:29;;;;;;;3.95;2.10;;;;;;;2.82;98.48;99582.75;5091867;28;20544;-52
2021/12/05 05:03:55;;;;;;;13.70;3.22;;;;;;;2.82;98.67;99590.72;5074196;28;20047;-49
2021/12/05 05:06:21;;;;;;;6.60;2.30;;;;;;;2.82;98.41;99590.72;5092618;28;20016;-50
2021/12/05 05:08:53;;;;;;;6.68;2.10;;;;;;;2.81;98.89;99602.31;5082894;28;20028;-52
2021/12/05 05:11:21;;;;;;;8.95;2.22;;;;;;;2.81;98.42;99599.66;5096872;28;20066;-52
2021/12/05 05:13:48;;;;;;;4.32;1.90;;;;;;;2.79;98.89;99603.47;5078139;28;20032;-53
2021/12/05 05:16:15;;;;;;;3.50;2.47;;;;;;;2.81;98.90;99606.81;5096709;28;20050;-52
2021/12/05 05:18:53;;;;;;;5.50;2.50;;;;;;;2.83;99.38;99610.97;5094583;28;20032;-53
2021/12/05 05:29:38;;;;;;;6.70;3.35;;;;;;;2.85;99.06;99624.13;5083623;28;20118;-50
2021/12/05 05:50:36;;;;;;;10.38;4.05;;;;;;;2.89;98.22;99640.56;5091975;28;20109;-47
2021/12/05 05:53:02;;;;;;;4.85;3.75;;;;;;;2.92;98.46;99645.53;5086766;28;20474;-51
2021/12/05 05:55:28;;;;;;;7.05;3.75;;;;;;;2.91;99.17;99639.41;5075041;28;20048;-50
2021/12/05 06:00:34;;;;;;;8.80;4.25;;;;;;;2.97;98.34;99643.22;5084897;28;20024;-52
2021/12/05 06:03:21;;;;;;;8.50;3.67;;;;;;;2.98;98.08;99653.72;5071415;28;20039;-52
2021/12/05 06:06:06;;;;;;;7.50;3.63;;;;;;;2.99;98.28;99662.50;5062715;28;20076;-49
2021/12/05 06:08:34;;;;;;;8.75;3.38;;;;;;;2.97;98.81;99664.50;5094278;28;20039;-50
2021/12/05 06:11:03;;;;;;;9.65;3.35;;;;;;;2.93;98.44;99660.50;5094358;28;20537;-51
2021/12/05 06:13:29;;;;;;;4.78;3.30;;;;;;;2.93;97.97;99660.50;5094623;28;20077;-51
2021/12/05 06:15:55;;;;;;;8.98;3.10;;;;;;;2.95;98.57;99661.16;5094607;28;20058;-48
2021/12/05 06:18:21;;;;;;;5.63;3.20;;;;;;;2.94;97.90;99667.47;5094391;28;20057;-43
2021/12/05 06:20:48;;;;;;;5.25;3.00;;;;;;;2.91;98.71;99670.47;5074422;28;20024;-45
2021/12/05 06:23:14;;;;;;;4.57;2.53;;;;;;;2.85;98.56;99666.63;5073996;28;20456;-45
2021/12/05 06:25:41;;;;;;;5.25;3.20;;;;;;;2.78;98.47;99671.75;5074267;28;20035;-44
2021/12/05 06:28:12;;;;;;;8.75;3.30;;;;;;;2.74;98.12;99675.72;5082978;28;20113;-42
2021/12/05 06:31:08;;;;;;;6.45;3.28;;;;;;;2.69;98.32;99682.50;5075673;28;20041;-42
2021/12/05 06:42:49;;;;;;;8.33;3.23;;;;;;;2.63;98.67;99694.59;5073899;28;20067;-43
2021/12/05 06:47:27;;;;;;;6.70;3.53;;;;;;;2.63;98.27;99694.59;5078725;28;20048;-41
2021/12/05 06:49:54;;;;;;;10.13;4.13;;;;;;;2.64;98.79;99704.22;5095003;28;20083;-41
2021/12/05 06:52:20;;;;;;;10.27;5.45;;;;;;;2.64;98.96;99715.69;5093508;28;20028;-42
2021/12/05 06:54:45;;;;;;;12.75;5.80;;;;;;;2.65;98.70;99713.84;5081132;28;20475;-42
2021/12/05 06:57:11;;;;;;;17.10;6.75;;;;;;;2.69;99.09;99711.72;5056532;28;20436;-42
2021/12/05 06:59:39;;;;;;;10.15;5.88;;;;;;;2.70;99.57;99711.56;5083523;28;20396;-41
2021/12/05 07:02:06;;;;;;;11.27;5.40;;;;;;;2.71;99.45;99718.53;5078711;28;20021;-41
2021/12/05 07:07:15;;;;;;;18.60;6.00;;;;;;;2.73;99.06;99721.88;5093709;28;20145;-42
2021/12/05 07:09:41;;;;;;;15.43;7.63;;;;;;;2.74;98.58;99728.84;5094048;28;20063;-42
2021/12/05 07:15:01;;;;;;;17.70;8.57;;;;;;;2.75;98.88;99741.13;5081593;28;20749;-42
2021/12/05 07:25:34;;;;;;;16.40;8.73;;;;;;;2.79;99.31;99753.13;5057032;28;20097;-42
2021/12/05 07:42:06;;;;;;;18.95;9.52;;;;;;;2.89;99.71;99790.19;5075579;28;20055;-43
2021/12/05 07:44:32;;;;;;;21.08;10.90;;;;;;;2.92;99.69;99783.72;5074036;28;20058;-43
2021/12/05 07:46:57;;;;;;;22.30;10.85;;;;;;;2.95;100.00;99791.38;5084054;28;20113;-42
2021/12/05 07:49:23;;;;;;;23.60;11.35;;;;;;;2.96;99.33;99796.56;5082924;28;20027;-42
2021/12/05 07:51:49;;;;;;;20.38;10.75;;;;;;;3.02;99.79;99805.72;5079914;28;20020;-42
2021/12/05 07:56:50;;;;;;;30.17;12.18;;;;;;;3.09;100.00;99801.44;5092208;28;20471;-42
2021/12/05 08:15:48;;;;;;;18.10;10.60;;;;;;;3.35;99.20;99814.69;5071383;28;20499;-46
2021/12/05 08:18:14;;;;;;;24.00;11.10;;;;;;;3.45;99.30;99823.38;5089617;28;20035;-46
2021/12/05 08:20:44;;;;;;;24.02;9.85;;;;;;;3.77;99.56;99815.63;5090391;28;20020;-45
2021/12/05 08:23:12;;;;;;;14.10;8.32;;;;;;;3.83;98.11;99828.28;5082035;28;20058;-44
2021/12/05 08:25:39;;;;;;;15.35;8.75;;;;;;;3.86;97.45;99831.44;5083693;28;20330;-44
2021/12/05 08:30:40;;;;;;;15.43;9.25;;;;;;;3.89;96.67;99843.59;5077019;28;20078;-43
2021/12/05 08:40:48;;;;;;;19.48;8.45;;;;;;;4.28;94.35;99838.47;5092492;28;20115;-43
2021/12/05 08:43:42;;;;;;;12.68;7.15;;;;;;;4.21;93.33;99839.31;5073743;28;20094;-43
2021/12/05 09:40:14;;;;;;;14.25;7.55;;;;;;;4.17;94.78;99934.69;5080294;28;20043;-41
2021/12/05 10:08:16;;;;;;;12.52;7.50;;;;;;;4.27;96.43;99958.53;5008937;28;20112;-44
2021/12/05 10:10:33;;;;;;;17.65;8.32;;;;;;;4.28;96.31;99965.50;5052433;28;20123;-41
2021/12/05 10:16:42;;;;;;;18.15;8.38;;;;;;;4.49;96.18;99976.53;5086650;28;20572;-42
2021/12/05 10:38:42;;;;;;;15.13;6.90;;;;;;;5.03;92.17;100000.91;5087790;28;20174;-43
2021/12/05 10:43:42;;;;;;;11.35;6.40;;;;;;;4.95;92.24;99992.94;5105445;28;20404;-42
2021/12/05 10:46:10;;;;;;;17.85;7.05;;;;;;;5.00;92.61;100000.41;5079799;28;20032;-43
2021/12/05 10:48:39;;;;;;;12.30;5.72;;;;;;;4.98;92.68;100003.25;5069139;28;20461;-42
2021/12/05 10:51:07;;;;;;;7.75;5.55;;;;;;;5.01;92.14;100012.75;5068821;28;20031;-42
2021/12/05 10:53:35;;;;;;;;;;;;;;;4.97;92.46;99998.06;5069122;28;20052;-42
2021/12/05 10:56:11;;;;;;;9.75;5.53;;;;;;;5.04;92.31;100013.25;5068984;28;19919;-42
2021/12/05 10:58:49;;;;;;;11.63;5.93;;;;;;;5.13;92.54;100013.25;5067598;28;20064;-43
2021/12/05 11:01:14;;;;;;;;;;;;;;;5.36;92.58;100008.91;5069228;28;20036;-43
2021/12/05 11:03:40;;;;;;;7.78;5.30;;;;;;;5.48;91.59;100018.22;5068701;28;19912;-43
2021/12/05 11:06:28;;;;;;;10.63;4.30;;;;;;;5.46;90.40;100017.56;5068384;28;20028;-43
2021/12/05 11:09:09;;;;;;;8.32;4.20;;;;;;;5.62;90.82;100019.38;5068318;28;20059;-41
2021/12/05 11:11:36;;;;;;;7.38;4.55;;;;;;;5.55;90.30;100014.88;5067027;28;20029;-43
2021/12/05 11:14:03;;;;;;;7.72;4.40;;;;;;;5.60;90.15;100023.22;5068455;28;20028;-42
2021/12/05 11:16:43;;;;;;;7.05;4.70;;;;;;;5.59;90.45;100021.56;5068453;28;20486;-42
2021/12/05 11:19:11;;;;;;;6.97;3.70;;;;;;;5.80;88.88;100029.00;5068461;28;20042;-43
2021/12/05 11:21:45;;;;;;;;;;;;;;;5.85;87.85;100032.00;5067098;28;20033;-42
2021/12/05 11:24:16;;;;;;;12.00;3.95;;;;;;;5.79;88.28;100027.31;5059118;28;19970;-43
2021/12/05 11:26:49;;;;;;;9.15;4.20;;;;;;;5.61;89.19;100038.22;5055095;28;20107;-42
2021/12/05 11:29:14;;;;;;;8.38;4.22;;;;;;;5.63;89.61;100038.88;5053573;28;20087;-42
2021/12/05 11:31:40;;;;;;;5.05;4.43;;;;;;;5.77;89.24;100046.22;5041977;28;20064;-42
2021/12/05 11:34:05;;;;;;;4.68;4.07;;;;;;;5.87;89.14;100046.84;5035156;28;20034;-43
2021/12/05 11:36:34;;;;;;;9.80;3.50;;;;;;;5.78;88.51;100042.53;5034891;28;20025;-43
2021/12/05 11:39:11;;;;;;;6.93;3.50;;;;;;;5.86;88.59;100050.50;5066812;28;20033;-42
2021/12/05 11:41:37;;;;;;;4.63;3.05;;;;;;;6.04;88.01;100046.84;5041022;28;20447;-41
2021/12/05 11:44:03;;;;;;;6.50;3.47;;;;;;;6.11;87.27;100047.81;5053505;28;20472;-41
2021/12/05 11:46:34;;;;;;;7.85;3.25;;;;;;;6.25;86.99;100046.25;5052114;28;20068;-41
2021/12/05 11:49:04;;;;;;;4.03;3.13;;;;;;;6.15;86.38;100054.47;5054091;28;20029;-42
2021/12/05 11:51:32;;;;;;;3.40;3.05;;;;;;;6.06;86.26;100058.19;5053383;28;20091;-41
2021/12/05 11:54:09;;;;;;;4.68;3.38;;;;;;;6.08;87.54;100053.47;5054376;28;20028;-41
2021/12/05 11:56:35;;;;;;;7.40;3.53;;;;;;;6.28;86.46;100060.09;5053978;28;20067;-42
2021/12/05 11:59:26;;;;;;;5.43;3.00;;;;;;;6.03;86.80;100066.50;5054401;28;20033;-42
2021/12/05 12:02:00;;;;;;;7.45;3.42;;;;;;;6.02;86.82;100065.69;5042332;28;20136;-42
2021/12/05 12:04:47;;;;;;;4.40;3.25;;;;;;;5.89;86.52;100071.53;5054042;28;20025;-41
2021/12/05 12:07:34;;;;;;;6.47;3.38;;;;;;;5.84;86.46;100079.22;5053493;28;20108;-41
2021/12/05 12:10:14;;;;;;;3.17;2.53;;;;;;;5.69;86.27;100080.94;5054274;28;20029;-42
2021/12/05 12:12:45;;;;;;;6.65;3.17;;;;;;;5.59;86.81;100085.63;5050991;28;20045;-41
2021/12/05 12:15:11;;;;;;;6.28;3.50;;;;;;;5.55;86.86;100087.75;5053423;28;20388;-42
2021/12/05 12:17:37;;;;;;;7.80;3.42;;;;;;;5.62;86.83;100088.78;5053988;28;20746;-42
2021/12/05 12:20:05;;;;;;;6.95;3.33;;;;;;;5.65;86.35;100090.28;5052692;28;20883;-43
2021/12/05 12:22:30;;;;;;;;;;;;;;;5.76;86.83;100091.75;5053842;28;20550;-42
2021/12/05 12:25:00;;;;;;;6.13;2.72;;;;;;;5.68;86.44;100092.59;5052831;28;19913;-42
2021/12/05 12:27:25;;;;;;;7.43;2.75;;;;;;;5.60;85.92;100100.63;5053179;28;20043;-43
2021/12/05 12:29:52;;;;;;;9.30;3.10;;;;;;;5.56;86.73;100096.63;5053062;28;20033;-42
2021/12/05 12:32:23;;;;;;;6.93;3.33;;;;;;;5.63;86.69;100103.78;5052816;28;20074;-43
2021/12/05 12:34:57;;;;;;;2.83;2.58;;;;;;;5.54;85.65;100098.63;5051821;28;20033;-42
2021/12/05 12:37:23;;;;;;;3.38;2.42;;;;;;;5.54;86.71;100106.63;5052715;28;20025;-43
2021/12/05 12:39:51;;;;;;;6.93;2.70;;;;;;;5.50;87.37;100114.97;5053219;28;20039;-43
2021/12/05 12:42:23;;;;;;;3.10;2.38;;;;;;;5.49;88.18;100110.63;5053304;28;20577;-42
2021/12/05 12:45:20;;;;;;;4.13;2.95;;;;;;;5.60;88.65;100108.63;5053550;28;20043;-42
2021/12/05 12:47:51;;;;;;;6.40;2.60;;;;;;;5.58;87.70;100116.81;5052851;28;20044;-43
2021/12/05 12:50:34;;;;;;;8.52;3.08;;;;;;;5.67;87.07;100114.97;5053378;28;20025;-43
2021/12/05 12:53:18;;;;;;;9.75;3.10;;;;;;;5.59;87.93;100120.31;5051959;28;20082;-44
2021/12/05 12:56:10;;;;;;;7.20;2.97;;;;;;;5.61;89.16;100120.97;5053032;28;20040;-43
2021/12/05 12:58:39;;;;;;;7.63;3.58;;;;;;;5.60;89.58;100127.31;5046969;28;20029;-43
2021/12/05 13:10:05;;;;;;;8.98;3.90;;;;;;;5.58;90.45;100134.63;5052973;28;20397;-41
2021/12/05 13:12:45;;;;;;;6.47;4.28;;;;;;;5.58;90.00;100148.84;5052723;28;20045;-42
2021/12/05 13:15:17;;;;;;;15.30;4.20;;;;;;;5.62;90.64;100149.34;5053010;28;20392;-43
2021/12/05 13:17:45;;;;;;;6.10;4.00;;;;;;;5.60;90.60;100148.66;5052553;28;20059;-43
2021/12/05 13:20:13;;;;;;;8.20;4.45;;;;;;;5.59;90.36;100149.69;5052857;28;20074;-41
2021/12/05 13:22:59;;;;;;;11.57;4.90;;;;;;;5.61;90.11;100159.19;5052927;28;20025;-41
2021/12/05 13:25:25;;;;;;;11.80;4.65;;;;;;;5.76;88.90;100158.50;5051483;28;20060;-41
2021/12/05 13:27:51;;;;;;;8.60;4.70;;;;;;;5.81;88.67;100164.19;5051264;28;20459;-43
2021/12/05 13:30:33;;;;;;;15.90;4.95;;;;;;;5.69;87.65;100166.38;5052567;28;20040;-42
2021/12/05 13:33:34;;;;;;;7.82;4.40;;;;;;;5.64;88.45;100168.69;5052917;28;20029;-41
2021/12/05 13:36:29;;;;;;;5.57;4.63;;;;;;;5.66;89.22;100174.69;5010158;28;20033;-40
2021/12/05 13:38:55;;;;;;;6.47;5.05;;;;;;;5.57;89.47;100165.84;5032328;28;20056;-41
2021/12/05 13:41:20;;;;;;;7.65;4.72;;;;;;;5.59;89.83;100171.84;5032538;28;20033;-42
2021/12/05 13:43:56;;;;;;;8.80;5.63;;;;;;;5.63;90.08;100169.69;5032436;28;20025;-43
2021/12/05 13:46:33;;;;;;;7.93;5.10;;;;;;;5.53;89.40;100174.34;5034939;28;20029;-43
2021/12/05 13:49:02;;;;;;;11.15;6.00;;;;;;;5.40;89.57;100183.69;5052444;28;20031;-42
2021/12/05 13:51:28;;;;;;;8.75;5.57;;;;;;;5.34;89.32;100189.66;5052237;28;20031;-41
2021/12/05 13:53:57;;;;;;;9.10;6.40;;;;;;;5.41;90.09;100190.69;5052364;28;20025;-41
2021/12/05 13:56:26;;;;;;;8.15;6.50;;;;;;;5.41;90.52;100190.69;5052027;28;20037;-41
2021/12/05 13:58:54;;;;;;;8.15;7.03;;;;;;;5.36;90.53;100203.69;5052552;28;20383;-42
2021/12/05 14:01:34;;;;;;;15.00;6.82;;;;;;;5.21;90.20;100205.31;5052295;28;20029;-42
2021/12/05 14:04:18;;;;;;;12.60;8.13;;;;;;;5.26;90.62;100211.00;5037049;28;20021;-42
2021/12/05 14:06:54;;;;;;;11.10;8.35;;;;;;;5.26;90.66;100213.66;5052833;28;20044;-41
2021/12/05 14:09:30;;;;;;;12.20;8.18;;;;;;;5.22;90.51;100215.84;5052745;28;20029;-43
2021/12/05 14:11:58;;;;;;;10.73;8.52;;;;;;;5.17;90.24;100225.31;5052192;28;20056;-41
2021/12/05 14:14:38;;;;;;;12.80;9.13;;;;;;;5.22;90.48;100218.50;5047119;28;20037;-41
2021/12/05 14:17:16;;;;;;;14.35;9.07;;;;;;;5.28;90.41;100233.00;5052215;28;20044;-42
2021/12/05 14:19:46;;;;;;;14.20;8.80;;;;;;;5.26;89.82;100240.34;5050690;28;20025;-41
2021/12/05 14:22:14;;;;;;;13.82;9.32;;;;;;;5.27;90.12;100242.84;5049921;28;20036;-42
2021/12/05 14:24:43;;;;;;;14.70;9.43;;;;;;;5.23;90.11;100257.50;5052106;28;20032;-42
2021/12/05 14:27:18;;;;;;;16.48;8.75;;;;;;;5.22;89.92;100261.19;5050789;28;20476;-43
2021/12/05 14:29:46;;;;;;;25.15;10.10;;;;;;;5.21;89.93;100264.00;5050469;28;20036;-42
2021/12/05 14:32:25;;;;;;;15.27;9.70;;;;;;;5.28;89.88;100271.19;5052212;28;20025;-42
2021/12/05 14:34:59;;;;;;;16.40;9.65;;;;;;;5.31;89.64;100275.38;5050913;28;20067;-42
2021/12/05 14:37:26;;;;;;;13.70;9.00;;;;;;;5.35;89.06;100276.75;5052264;28;20104;-41
2021/12/05 14:39:59;;;;;;;14.98;9.02;;;;;;;5.32;88.93;100285.06;5052048;28;20106;-42
2021/12/05 14:42:27;;;;;;;16.65;10.82;;;;;;;5.34;89.52;100285.72;5051851;28;20036;-42
2021/12/05 14:44:56;;;;;;;16.63;10.93;;;;;;;5.31;89.53;100295.91;5050675;28;20025;-42
2021/12/05 14:47:24;;;;;;;18.70;12.02;;;;;;;5.25;89.00;100308.06;5051895;28;20021;-41
2021/12/05 14:50:01;;;;;;;18.65;12.05;;;;;;;5.26;89.35;100307.03;5050770;28;20179;-43
2021/12/05 14:52:29;;;;;;;25.15;12.02;;;;;;;5.23;89.00;100310.88;5051803;28;20469;-41
2021/12/05 14:54:54;;;;;;;;;;;;;;;5.26;89.22;100320.38;5051053;28;20029;-42
2021/12/05 14:57:24;;;;;;;21.70;11.80;;;;;;;5.30;89.17;100327.09;5052080;28;19995;-41
2021/12/05 14:59:52;;;;;;;27.13;14.15;;;;;;;5.24;88.59;100333.06;5052796;28;20037;-42
2021/12/05 15:02:19;;;;;;;27.17;12.85;;;;;;;5.28;88.87;100337.06;5055627;28;20033;-41
2021/12/05 15:04:50;;;;;;;22.90;13.10;;;;;;;5.27;88.98;100344.25;5055719;28;20025;-43
2021/12/05 15:07:21;;;;;;;25.77;14.00;;;;;;;5.31;89.27;100352.75;5055608;28;20029;-42
2021/12/05 15:09:49;;;;;;;25.23;14.18;;;;;;;5.35;89.48;100359.47;5054378;28;20060;-41
2021/12/05 15:12:21;;;;;;;27.90;14.65;;;;;;;5.42;89.24;100367.66;5054363;28;20052;-42
2021/12/05 15:14:49;;;;;;;39.42;17.13;;;;;;;5.44;89.63;100371.81;5053591;28;20037;-41
2021/12/05 15:17:15;;;;;;;32.20;16.70;;;;;;;5.43;89.09;100374.69;5042897;28;20025;-42
2021/12/05 15:19:43;;;;;;;45.78;19.05;;;;;;;5.36;88.79;100376.31;5055230;28;20021;-41
2021/12/05 15:22:12;;;;;;;43.75;18.83;;;;;;;5.28;88.90;100385.09;5055291;28;20021;-41
2021/12/05 15:24:37;;;;;;;46.05;19.27;;;;;;;5.20;88.89;100385.06;5045705;28;20086;-41
2021/12/05 15:27:06;;;;;;;43.08;18.98;;;;;;;5.18;88.86;100395.03;5038608;28;21109;-43
2021/12/05 15:29:31;;;;;;;52.67;19.63;;;;;;;5.19;89.21;100402.06;5052692;28;20456;-41
2021/12/05 15:31:57;;;;;;;45.58;19.20;;;;;;;5.13;89.67;100403.50;5062540;28;20142;-41
2021/12/05 15:34:29;;;;;;;49.30;20.02;;;;;;;5.11;89.66;100402.00;5065742;28;20029;-41
2021/12/05 15:36:55;;;;;;;57.47;20.90;;;;;;;4.99;90.10;100410.25;5054915;28;20028;-42
2021/12/05 15:39:25;;;;;;;57.17;21.85;;;;;;;4.99;91.09;100420.94;5054701;28;20032;-42
2021/12/05 15:41:52;;;;;;;59.80;22.67;;;;;;;5.01;91.05;100432.28;5054797;28;20083;-42
2021/12/05 15:44:39;;;;;;;60.00;25.02;;;;;;;4.97;91.38;100430.91;5054488;28;20032;-42
2021/12/05 15:47:13;;;;;;;58.15;23.88;;;;;;;4.90;91.18;100440.53;5054575;28;20057;-42
2021/12/05 15:49:43;;;;;;;69.80;26.92;;;;;;;4.84;91.29;100454.47;5054330;28;20066;-42
2021/12/05 15:52:09;;;;;;;67.95;26.08;;;;;;;4.76;91.90;100451.75;5054295;28;20456;-42
2021/12/05 15:54:36;;;;;;;67.03;26.30;;;;;;;4.72;91.71;100461.06;5053784;28;20204;-43
2021/12/05 15:57:23;;;;;;;65.30;27.40;;;;;;;4.72;91.92;100461.88;5054163;28;20475;-42
2021/12/05 15:59:49;;;;;;;69.32;28.08;;;;;;;4.75;92.00;100464.25;5054230;28;20506;-42
2021/12/05 16:02:20;;;;;;;65.68;26.73;;;;;;;4.68;91.63;100465.00;5054230;28;20468;-42
2021/12/05 16:04:47;;;;;;;66.43;28.17;;;;;;;4.67;92.01;100464.19;5053095;28;20508;-42
2021/12/05 16:07:16;;;;;;;68.28;27.95;;;;;;;4.72;92.35;100469.06;5054764;28;20033;-41
2021/12/05 16:09:42;;;;;;;76.78;28.40;;;;;;;4.70;91.87;100468.38;5046719;28;20041;-41
2021/12/05 16:12:16;;;;;;;65.95;28.30;;;;;;;4.68;91.96;100478.34;5032670;28;20041;-41
2021/12/05 16:14:52;;;;;;;79.78;30.15;;;;;;;4.71;92.51;100488.69;5046289;28;20086;-42
2021/12/05 16:17:24;;;;;;;72.13;29.92;;;;;;;4.75;92.47;100482.06;5052143;28;20047;-42
2021/12/05 16:20:03;;;;;;;73.95;30.30;;;;;;;4.75;92.63;100488.25;5048676;28;20056;-42
2021/12/05 16:22:28;;;;;;;73.82;29.02;;;;;;;4.81;92.22;100497.44;5053831;28;20453;-42
2021/12/05 16:24:54;;;;;;;73.75;30.45;;;;;;;4.91;92.33;100503.53;5053410;28;20075;-41
2021/12/05 16:27:19;;;;;;;74.47;29.58;;;;;;;4.90;92.45;100507.22;5051594;28;20040;-41
2021/12/05 16:29:44;;;;;;;74.88;30.48;;;;;;;4.88;92.17;100508.34;5053860;28;20142;-43
2021/12/05 16:32:10;;;;;;;63.72;28.40;;;;;;;4.84;91.95;100515.81;5052583;28;20049;-42
2021/12/05 16:34:40;;;;;;;64.22;26.73;;;;;;;4.80;91.82;100522.44;5053737;28;20063;-42
2021/12/05 16:37:07;;;;;;;66.15;27.00;;;;;;;4.82;91.86;100523.13;5052572;28;20032;-42
2021/12/05 16:39:42;;;;;;;64.13;28.42;;;;;;;4.86;92.48;100529.00;5053328;28;20021;-41
2021/12/05 16:42:12;;;;;;;68.25;27.35;;;;;;;4.92;91.73;100526.53;5051916;28;20067;-42
2021/12/05 16:44:40;;;;;;;65.13;27.38;;;;;;;4.94;91.19;100542.41;5053074;28;20159;-42
2021/12/05 16:47:10;;;;;;;63.47;28.00;;;;;;;4.88;90.90;100541.19;5053427;28;20029;-41
2021/12/05 16:49:39;;;;;;;56.78;26.80;;;;;;;4.90;90.56;100544.53;5053166;28;20032;-41
2021/12/05 16:52:08;;;;;;;58.78;26.10;;;;;;;4.79;90.83;100553.59;5052057;28;20104;-41
2021/12/05 16:54:45;;;;;;;66.70;27.95;;;;;;;4.77;90.99;100560.09;5052817;28;20396;-42
2021/12/05 16:57:18;;;;;;;59.45;27.35;;;;;;;4.88;90.85;100578.53;5051827;28;20037;-41
2021/12/05 16:59:47;;;;;;;57.75;26.30;;;;;;;4.88;90.88;100586.50;5053275;28;20029;-42
2021/12/05 17:02:27;;;;;;;62.13;27.38;;;;;;;4.89;90.61;100593.50;5049707;28;20036;-41
2021/12/05 17:05:03;;;;;;;52.20;26.08;;;;;;;4.86;90.71;100601.81;5033178;28;20476;-41